KSUA/SUA METAR and TAF weather

Enter ICAO airport designator
Station Type Date Time Source
KSUA METAR 2022/08/13 11:47 UTC NOAA

KSUA 131147Z 00000KT 7SM SCT025 26/23 A3004 RMK WND ESTD.


Station Type Date Time Source
KSUA Decoded METAR 2022/08/13 11:47 UTC NOAA

Stuart, Witham Field Airport, FL, United States (KSUA) 27-10-54N 080-13-16W
Aug 13, 2022 - 07:47 AM EDT / 2022.08.13 1147 UTC
Wind: Calm:0
Visibility: 7 mile(s):0
Sky conditions: partly cloudy
Temperature: 78 F (26 C)
Dew Point: 73 F (23 C)
Relative Humidity: 83%
Pressure (altimeter): 30.04 in. Hg (1017 hPa)
ob: KSUA 131147Z 00000KT 7SM SCT025 26/23 A3004 RMK WND ESTD.
cycle: 12

Station Type Date Time Source
KSUA TAF 2022/08/13 12:22 UTC NOAA

TAF KSUA 131120Z 1312/1412 VRB03KT P6SM SCT025
FM131400 18005KT P6SM SCT025 SCT250
FM131800 12010KT P6SM VCTS SCT035CB BKN200
FM140200 VRB04KT P6SM SCT040 BKN200
AMD NOT SKED

Example: see airport list